sensor_id;sensor_type;location;lat;lon;timestamp;P1;durP1;ratioP1;P2;durP2;ratioP2
9234;SDS011;4652;42.716;23.218;2023-04-22T00:06:41;15.57;;;11.97;;
9234;SDS011;4652;42.716;23.218;2023-04-22T00:13:24;14.97;;;11.80;;
9234;SDS011;4652;42.716;23.218;2023-04-22T00:20:07;13.73;;;11.57;;
9234;SDS011;4652;42.716;23.218;2023-04-22T00:26:51;17.67;;;13.03;;
9234;SDS011;4652;42.716;23.218;2023-04-22T00:33:33;12.57;;;11.20;;
9234;SDS011;4652;42.716;23.218;2023-04-22T00:40:15;13.60;;;11.50;;
9234;SDS011;4652;42.716;23.218;2023-04-22T00:46:59;13.73;;;10.77;;
9234;SDS011;4652;42.716;23.218;2023-04-22T00:53:41;13.70;;;11.40;;
9234;SDS011;4652;42.716;23.218;2023-04-22T01:08:05;15.97;;;11.90;;
9234;SDS011;4652;42.716;23.218;2023-04-22T01:14:47;15.73;;;11.90;;
9234;SDS011;4652;42.716;23.218;2023-04-22T01:21:29;12.70;;;11.23;;
9234;SDS011;4652;42.716;23.218;2023-04-22T01:28:15;14.47;;;11.90;;
9234;SDS011;4652;42.716;23.218;2023-04-22T01:34:57;15.23;;;12.10;;
9234;SDS011;4652;42.716;23.218;2023-04-22T01:41:39;14.10;;;11.50;;
9234;SDS011;4652;42.716;23.218;2023-04-22T01:48:23;14.77;;;11.60;;
9234;SDS011;4652;42.716;23.218;2023-04-22T01:55:06;13.33;;;11.43;;
9234;SDS011;4652;42.716;23.218;2023-04-22T02:01:49;11.90;;;10.60;;
9234;SDS011;4652;42.716;23.218;2023-04-22T02:08:32;9.97;;;8.67;;
9234;SDS011;4652;42.716;23.218;2023-04-22T02:15:14;9.27;;;8.37;;
9234;SDS011;4652;42.716;23.218;2023-04-22T02:21:56;11.17;;;8.33;;
9234;SDS011;4652;42.716;23.218;2023-04-22T02:28:40;14.27;;;10.00;;
9234;SDS011;4652;42.716;23.218;2023-04-22T02:35:21;11.30;;;9.17;;
9234;SDS011;4652;42.716;23.218;2023-04-22T02:42:04;9.60;;;8.57;;
9234;SDS011;4652;42.716;23.218;2023-04-22T04:06:47;12.50;;;9.90;;
9234;SDS011;4652;42.716;23.218;2023-04-22T04:13:28;11.73;;;9.53;;
9234;SDS011;4652;42.716;23.218;2023-04-22T04:20:11;15.60;;;10.83;;
9234;SDS011;4652;42.716;23.218;2023-04-22T04:26:54;12.20;;;10.50;;
9234;SDS011;4652;42.716;23.218;2023-04-22T04:33:37;14.80;;;10.83;;
9234;SDS011;4652;42.716;23.218;2023-04-22T04:40:18;13.27;;;11.53;;
9234;SDS011;4652;42.716;23.218;2023-04-22T04:47:02;18.07;;;13.87;;
9234;SDS011;4652;42.716;23.218;2023-04-22T04:53:44;18.37;;;13.87;;
9234;SDS011;4652;42.716;23.218;2023-04-22T05:00:26;16.43;;;14.63;;
9234;SDS011;4652;42.716;23.218;2023-04-22T05:07:09;15.67;;;12.60;;
9234;SDS011;4652;42.716;23.218;2023-04-22T05:13:50;13.73;;;11.17;;
9234;SDS011;4652;42.716;23.218;2023-04-22T05:20:32;11.73;;;9.93;;
9234;SDS011;4652;42.716;23.218;2023-04-22T05:27:15;11.47;;;10.27;;
9234;SDS011;4652;42.716;23.218;2023-04-22T05:33:56;10.07;;;9.13;;
9234;SDS011;4652;42.716;23.218;2023-04-22T05:40:38;14.57;;;13.27;;
9234;SDS011;4652;42.716;23.218;2023-04-22T05:47:22;12.47;;;8.10;;
9234;SDS011;4652;42.716;23.218;2023-04-22T05:54:04;10.93;;;8.73;;
9234;SDS011;4652;42.716;23.218;2023-04-22T06:00:46;10.10;;;9.07;;
9234;SDS011;4652;42.716;23.218;2023-04-22T06:07:29;10.80;;;9.80;;
9234;SDS011;4652;42.716;23.218;2023-04-22T06:14:11;9.88;;;8.30;;
9234;SDS011;4652;42.716;23.218;2023-04-22T06:20:53;10.88;;;9.68;;
9234;SDS011;4652;42.716;23.218;2023-04-22T06:27:36;9.30;;;8.40;;
9234;SDS011;4652;42.716;23.218;2023-04-22T06:34:18;8.40;;;7.70;;
9234;SDS011;4652;42.716;23.218;2023-04-22T06:41:00;9.48;;;8.05;;
9234;SDS011;4652;42.716;23.218;2023-04-22T06:47:43;8.25;;;7.53;;
9234;SDS011;4652;42.716;23.218;2023-04-22T06:54:25;7.28;;;6.68;;
9234;SDS011;4652;42.716;23.218;2023-04-22T07:08:05;6.45;;;5.88;;
9234;SDS011;4652;42.716;23.218;2023-04-22T07:14:47;6.85;;;5.22;;
9234;SDS011;4652;42.716;23.218;2023-04-22T07:21:30;6.68;;;4.90;;
9234;SDS011;4652;42.716;23.218;2023-04-22T07:28:13;5.05;;;4.55;;
9234;SDS011;4652;42.716;23.218;2023-04-22T07:34:55;4.90;;;4.50;;
9234;SDS011;4652;42.716;23.218;2023-04-22T07:41:37;6.88;;;5.00;;
9234;SDS011;4652;42.716;23.218;2023-04-22T07:48:20;4.93;;;4.25;;
9234;SDS011;4652;42.716;23.218;2023-04-22T07:55:03;6.60;;;4.43;;
9234;SDS011;4652;42.716;23.218;2023-04-22T08:01:46;5.43;;;4.70;;
9234;SDS011;4652;42.716;23.218;2023-04-22T08:08:29;6.00;;;4.83;;
9234;SDS011;4652;42.716;23.218;2023-04-22T12:28:05;4.07;;;3.10;;
9234;SDS011;4652;42.716;23.218;2023-04-22T12:34:47;3.40;;;2.87;;
9234;SDS011;4652;42.716;23.218;2023-04-22T12:41:30;4.07;;;3.33;;
9234;SDS011;4652;42.716;23.218;2023-04-22T12:48:13;2.90;;;2.70;;
9234;SDS011;4652;42.716;23.218;2023-04-22T12:54:55;2.93;;;2.70;;
9234;SDS011;4652;42.716;23.218;2023-04-22T14:25:12;4.43;;;4.03;;
9234;SDS011;4652;42.716;23.218;2023-04-22T14:31:54;3.83;;;3.10;;
9234;SDS011;4652;42.716;23.218;2023-04-22T14:38:36;4.53;;;3.40;;
9234;SDS011;4652;42.716;23.218;2023-04-22T14:45:20;3.80;;;3.40;;
9234;SDS011;4652;42.716;23.218;2023-04-22T14:52:03;4.83;;;3.33;;
9234;SDS011;4652;42.716;23.218;2023-04-22T14:58:46;5.00;;;3.10;;
9234;SDS011;4652;42.716;23.218;2023-04-22T15:05:30;4.80;;;3.60;;
9234;SDS011;4652;42.716;23.218;2023-04-22T15:12:12;3.60;;;2.80;;
9234;SDS011;4652;42.716;23.218;2023-04-22T15:18:54;4.97;;;3.50;;
9234;SDS011;4652;42.716;23.218;2023-04-22T15:25:37;6.30;;;3.63;;
9234;SDS011;4652;42.716;23.218;2023-04-22T15:32:19;6.83;;;4.27;;
9234;SDS011;4652;42.716;23.218;2023-04-22T15:39:01;3.43;;;3.13;;
9234;SDS011;4652;42.716;23.218;2023-04-22T15:45:46;6.53;;;3.80;;
9234;SDS011;4652;42.716;23.218;2023-04-22T15:52:28;4.17;;;3.53;;
9234;SDS011;4652;42.716;23.218;2023-04-22T15:59:10;4.83;;;3.80;;
9234;SDS011;4652;42.716;23.218;2023-04-22T16:05:53;7.30;;;4.37;;
9234;SDS011;4652;42.716;23.218;2023-04-22T16:12:35;4.57;;;3.40;;
9234;SDS011;4652;42.716;23.218;2023-04-22T16:19:17;3.40;;;3.17;;
9234;SDS011;4652;42.716;23.218;2023-04-22T16:26:01;4.93;;;3.73;;
9234;SDS011;4652;42.716;23.218;2023-04-22T19:18:26;25.47;;;13.17;;
9234;SDS011;4652;42.716;23.218;2023-04-22T19:25:08;20.17;;;12.33;;
9234;SDS011;4652;42.716;23.218;2023-04-22T19:31:51;12.80;;;9.00;;
9234;SDS011;4652;42.716;23.218;2023-04-22T19:38:35;14.83;;;10.50;;
9234;SDS011;4652;42.716;23.218;2023-04-22T19:45:17;7.33;;;6.10;;
9234;SDS011;4652;42.716;23.218;2023-04-22T19:52:04;8.40;;;5.33;;
9234;SDS011;4652;42.716;23.218;2023-04-22T19:58:51;6.80;;;4.80;;
9234;SDS011;4652;42.716;23.218;2023-04-22T20:05:35;4.40;;;4.00;;
9234;SDS011;4652;42.716;23.218;2023-04-22T20:12:17;5.27;;;4.23;;
9234;SDS011;4652;42.716;23.218;2023-04-22T20:19:01;6.47;;;4.60;;
9234;SDS011;4652;42.716;23.218;2023-04-22T20:25:44;6.00;;;4.70;;
9234;SDS011;4652;42.716;23.218;2023-04-22T20:32:27;4.50;;;3.80;;
9234;SDS011;4652;42.716;23.218;2023-04-22T20:39:11;4.67;;;4.10;;
9234;SDS011;4652;42.716;23.218;2023-04-22T20:45:53;5.47;;;4.50;;
9234;SDS011;4652;42.716;23.218;2023-04-22T20:52:36;5.67;;;5.00;;
9234;SDS011;4652;42.716;23.218;2023-04-22T20:59:19;5.00;;;4.27;;
9234;SDS011;4652;42.716;23.218;2023-04-22T21:06:01;5.03;;;4.60;;
9234;SDS011;4652;42.716;23.218;2023-04-22T21:12:44;5.30;;;4.80;;
9234;SDS011;4652;42.716;23.218;2023-04-22T21:19:28;7.47;;;6.50;;
9234;SDS011;4652;42.716;23.218;2023-04-22T21:26:12;9.97;;;6.53;;
9234;SDS011;4652;42.716;23.218;2023-04-22T21:32:55;8.57;;;6.77;;
9234;SDS011;4652;42.716;23.218;2023-04-22T21:39:39;8.97;;;7.33;;
9234;SDS011;4652;42.716;23.218;2023-04-22T21:46:21;8.90;;;6.77;;
9234;SDS011;4652;42.716;23.218;2023-04-22T21:53:03;7.57;;;6.63;;
9234;SDS011;4652;42.716;23.218;2023-04-22T21:59:47;8.53;;;6.43;;
9234;SDS011;4652;42.716;23.218;2023-04-22T22:06:29;6.43;;;5.80;;
9234;SDS011;4652;42.716;23.218;2023-04-22T22:13:12;9.33;;;6.53;;
9234;SDS011;4652;42.716;23.218;2023-04-22T22:19:56;9.30;;;7.23;;
9234;SDS011;4652;42.716;23.218;2023-04-22T22:26:38;10.63;;;6.97;;
9234;SDS011;4652;42.716;23.218;2023-04-22T22:33:22;7.00;;;6.30;;
9234;SDS011;4652;42.716;23.218;2023-04-22T22:40:06;6.83;;;5.80;;
9234;SDS011;4652;42.716;23.218;2023-04-22T22:46:49;6.00;;;5.37;;
9234;SDS011;4652;42.716;23.218;2023-04-22T22:53:31;6.47;;;5.77;;
9234;SDS011;4652;42.716;23.218;2023-04-22T23:00:17;6.87;;;6.20;;
9234;SDS011;4652;42.716;23.218;2023-04-22T23:06:58;7.27;;;6.20;;
9234;SDS011;4652;42.716;23.218;2023-04-22T23:13:40;6.63;;;5.93;;
9234;SDS011;4652;42.716;23.218;2023-04-22T23:20:24;9.57;;;7.20;;
9234;SDS011;4652;42.716;23.218;2023-04-22T23:27:07;8.40;;;6.60;;
9234;SDS011;4652;42.716;23.218;2023-04-22T23:33:50;6.80;;;6.10;;
9234;SDS011;4652;42.716;23.218;2023-04-22T23:40:37;6.97;;;6.20;;
9234;SDS011;4652;42.716;23.218;2023-04-22T23:47:19;6.33;;;5.73;;
9234;SDS011;4652;42.716;23.218;2023-04-22T23:54:01;6.53;;;5.93;;
